Flight Track Log - Related Links

Times and Time Zones

All times are in EDT time to prevent confusion due to time zone crossing. See the SWA3944 flight status page for this flight to view local times or setup timezone preferences in your user account.

Time Position Orientation Groundspeed Altitude Reporting Facility
EDT Latitude Longitude Course Direction KTS MPH feet Rate Location/Type
Sat 08:27:34 AM 40.5089 -80.3647 288° West 198 228 5,300  Level Cleveland Center
Sat 08:28:34 AM 40.5300 -80.4492 288° West 219 252 8,300 3,467 Climbing Cleveland Center
Sat 08:30:34 AM 40.5717 -80.6378 286° West 264 304 15,700 3,600 Climbing Cleveland Center
Sat 08:31:34 AM 40.5925 -80.7389 285° West 283 326 19,100 3,200 Climbing Cleveland Center
Sat 08:32:00 AM 40.6272 -80.8920 288° West  Level FlightAware Approximate
Sat 08:32:34 AM 40.6172 -80.8511 286° West 301 346 22,100  Level Cleveland Center
Sat 08:33:34 AM 40.6419 -80.9633 286° West 313 360 24,700 2,650 Climbing Cleveland Center
Sat 08:34:34 AM 40.6664 -81.0978 284° West 330 380 27,400 1,600 Climbing Cleveland Center
Sat 08:35:34 AM 40.6950 -81.2239 287° West 350 403 27,900 950 Climbing Cleveland Center
Sat 08:36:34 AM 40.7272 -81.3667 287° West 389 448 29,300 1,700 Climbing Cleveland Center
Sat 08:37:34 AM 40.7639 -81.5125 288° West 417 480 31,300 1,950 Climbing Cleveland Center
Sat 08:38:34 AM 40.8044 -81.6364 293° West 422 486 33,200 1,350 Climbing Cleveland Center
Sat 08:39:34 AM 40.8511 -81.7744 294° West 415 478 34,000 400 Climbing Cleveland Center
Sat 08:40:34 AM 40.8953 -81.9125 293° West 415 478 34,000  Level Cleveland Center
Sat 08:41:34 AM 40.9794 -82.0133 318° Northwest 403 464 34,000  Level Cleveland Center
Sat 08:42:34 AM 41.0931 -82.1039 329° Northwest 411 473 34,000  Level Cleveland Center
Sat 08:43:34 AM 41.1942 -82.1836 329° Northwest 420 483 34,000  Level Cleveland Center
Sat 08:44:34 AM 41.2953 -82.2606 330° Northwest 426 490 34,000  Level Cleveland Center
Sat 08:45:34 AM 41.3961 -82.3408 329° Northwest 424 488 34,000  Level Cleveland Center
Sat 08:46:34 AM 41.4928 -82.4239 327° Northwest 424 488 34,000  Level Cleveland Center
Sat 08:47:34 AM 41.5178 -82.5550 284° West 363 418 34,000  Level Cleveland Center
Sat 08:48:34 AM 41.4469 -82.6636 229° Southwest 313 360 34,000  Level Cleveland Center
Sat 08:49:34 AM 41.3789 -82.7444 222° Southwest 343 395 34,000  Level Cleveland Center
Sat 08:50:34 AM 41.3761 -82.8800 268° West 350 403 34,000  Level Cleveland Center
Sat 08:51:34 AM 41.3878 -83.0242 276° West 369 425 34,000  Level Cleveland Center
Sat 08:52:34 AM 41.3931 -83.1628 273° West 383 441 34,000  Level Cleveland Center
Sat 08:53:34 AM 41.4019 -83.3211 274° West 388 447 34,000  Level Cleveland Center
Sat 08:54:34 AM 41.4114 -83.4461 276° West 388 447 34,000  Level Cleveland Center
Sat 08:55:34 AM 41.4200 -83.5906 275° West 388 447 34,000  Level Cleveland Center
Sat 08:56:34 AM 41.4289 -83.7322 275° West 388 447 34,000  Level Cleveland Center
Sat 08:57:34 AM 41.4372 -83.8739 275° West 388 447 34,000  Level Cleveland Center
Sat 08:58:34 AM 41.4458 -84.0128 275° West 388 447 34,000  Level Cleveland Center
Sat 08:59:34 AM 41.4519 -84.1544 273° West 382 440 34,000 -209 Level Cleveland Center
Sat 09:01:55 AM 41.4717 -84.4783 275° West 384 442 33,300 -1,153 Descending Chicago Center
Sat 09:02:57 AM 41.4803 -84.6456 274° West 379 436 30,100 -1,610 Descending Chicago Center
Sat 09:03:58 AM 41.4861 -84.7889 273° West 387 445 30,000 -49 Descending Chicago Center
Sat 09:05:00 AM 41.4914 -84.9325 273° West 389 448 30,000  Level Chicago Center
Sat 09:06:01 AM 41.4961 -85.0750 273° West 387 445 30,000 -885 Level Chicago Center
Sat 09:07:02 AM 41.5011 -85.2181 273° West 384 442 28,200 -2,000 Descending Chicago Center
Sat 09:08:04 AM 41.5047 -85.3592 272° West 377 434 25,900 -2,049 Descending Chicago Center
Sat 09:09:05 AM 41.5092 -85.5003 272° West 373 429 24,000 -1,268 Descending Chicago Center
Sat 09:10:07 AM 41.5136 -85.6408 272° West 374 430 23,300 -829 Descending Chicago Center
Sat 09:11:08 AM 41.5178 -85.7792 272° West 374 430 22,300 -1,610 Descending Chicago Center
Sat 09:12:10 AM 41.5208 -85.9122 272° West 365 420 20,000 -2,293 Descending Chicago Center
Sat 09:13:11 AM 41.5253 -86.0397 273° West 350 403 17,600 -2,293 Descending Chicago Center
Sat 09:14:13 AM 41.5239 -86.1625 269° West 337 388 15,300 -2,488 Descending Chicago Center
Sat 09:15:14 AM 41.5231 -86.3078 270° West 329 379 12,500 -2,098 Descending Chicago Center
Sat 09:16:16 AM 41.5225 -86.4244 270° West 319 367 11,000 -1,220 Descending Chicago Center
Sat 09:17:17 AM 41.5214 -86.5392 269° West 312 359 10,000 -537 Descending Chicago Center
Sat 09:18:19 AM 41.5606 -86.6356 299° West 323 372 9,900 -585 Descending Chicago Center
Sat 09:19:20 AM 41.6286 -86.6889 330° Northwest 290 334 8,800 -1,073 Descending Chicago Center
Sat 09:20:22 AM 41.6864 -86.7453 324° Northwest 277 319 7,700 -1,355 Descending Chicago Center
Sat 09:21:24 AM 41.6508 -86.8492 245° Southwest 260 299 6,000 -829 Descending Chicago Center
Sat 09:22:25 AM 41.6267 -86.9356 250° West 252 290 6,000  Level Chicago Center
Sat 09:23:27 AM 41.6244 -87.0292 268° West 251 289 6,000  Level Chicago Center
Sat 09:24:28 AM 41.6186 -87.1219 265° West 251 289 6,000 -240 Level Chicago Center
Sat 09:25:07 AM 41.6167 -87.2000 268° West 254 292 5,600 -1,152 Descending Chicago TRACON
Sat 09:26:07 AM 41.6000 -87.2833 255° West 255 293 4,100 -800 Descending Chicago TRACON
Sat 09:27:07 AM 41.6000 -87.3833 270° West 250 288 4,000 -70 Descending Chicago TRACON
Sat 09:27:33 AM 41.5989 -87.3997 265° West 251 289 4,000  Level Chicago Center
Sat 09:28:34 AM 41.5992 -87.4958 270° West 236 272 4,000  Level Chicago Center
Sat 09:29:36 AM 41.6408 -87.5497 316° Northwest 218 251 4,000 -146 Level Chicago Center
Sat 09:30:37 AM 41.6747 -87.5997 312° West 201 231 3,700 -537 Descending Chicago Center
Sat 09:31:39 AM 41.7058 -87.6400 316° Northwest 179 206 2,900 -780 Descending Chicago Center
Sat 09:32:40 AM 41.7317 -87.6775 313° West 159 183 2,100 -732 Descending Chicago Center
Sat 09:33:42 AM 41.7547 -87.7106 313° West 140 161 1,400 -537 Descending Chicago Center
Sat 09:34:43 AM 41.7819 -87.7492 313° West 134 154 1,000 -393 Descending Chicago Center
Sat 09:36:00 AM 41.7833 -87.7500 334° Northwest  Level FlightAware Approximate

Login

Don't have an account? Register now (free) for customized features, flight alerts, and more!